sensor_id;sensor_type;location;lat;lon;timestamp;temperature;humidity
24436;DHT22;12616;52.470;13.436;2023-06-22T00:01:19;21.40;99.90
24436;DHT22;12616;52.470;13.436;2023-06-22T00:03:46;21.40;99.90
24436;DHT22;12616;52.470;13.436;2023-06-22T00:06:13;21.30;99.90
24436;DHT22;12616;52.470;13.436;2023-06-22T00:08:40;21.50;1.00
24436;DHT22;12616;52.470;13.436;2023-06-22T00:11:07;21.30;99.90
24436;DHT22;12616;52.470;13.436;2023-06-22T00:13:34;21.20;99.90
24436;DHT22;12616;52.470;13.436;2023-06-22T00:16:01;21.20;99.90
24436;DHT22;12616;52.470;13.436;2023-06-22T00:18:30;21.20;99.90
24436;DHT22;12616;52.470;13.436;2023-06-22T00:20:57;21.20;1.00
24436;DHT22;12616;52.470;13.436;2023-06-22T00:23:24;21.30;44.40
24436;DHT22;12616;52.470;13.436;2023-06-22T00:25:51;20.90;1.00
24436;DHT22;12616;52.470;13.436;2023-06-22T00:28:18;21.10;99.90
24436;DHT22;12616;52.470;13.436;2023-06-22T00:30:45;21.10;99.90
24436;DHT22;12616;52.470;13.436;2023-06-22T00:33:13;21.10;1.00
24436;DHT22;12616;52.470;13.436;2023-06-22T00:35:43;21.40;1.00
24436;DHT22;12616;52.470;13.436;2023-06-22T00:38:10;21.10;1.00
24436;DHT22;12616;52.470;13.436;2023-06-22T00:40:37;21.10;1.00
24436;DHT22;12616;52.470;13.436;2023-06-22T00:43:05;20.90;1.00
24436;DHT22;12616;52.470;13.436;2023-06-22T00:45:32;20.70;1.00
24436;DHT22;12616;52.470;13.436;2023-06-22T00:47:59;21.30;1.00
24436;DHT22;12616;52.470;13.436;2023-06-22T00:50:27;20.90;1.00
24436;DHT22;12616;52.470;13.436;2023-06-22T00:53:03;21.00;1.00
24436;DHT22;12616;52.470;13.436;2023-06-22T00:55:35;20.90;1.00
24436;DHT22;12616;52.470;13.436;2023-06-22T00:58:05;20.80;99.90
24436;DHT22;12616;52.470;13.436;2023-06-22T01:00:33;20.50;1.00
24436;DHT22;12616;52.470;13.436;2023-06-22T01:03:02;20.80;99.90
24436;DHT22;12616;52.470;13.436;2023-06-22T01:05:29;20.50;99.90
24436;DHT22;12616;52.470;13.436;2023-06-22T01:08:08;21.10;99.90
24436;DHT22;12616;52.470;13.436;2023-06-22T01:10:41;20.80;1.00
24436;DHT22;12616;52.470;13.436;2023-06-22T01:13:16;20.70;99.90
24436;DHT22;12616;52.470;13.436;2023-06-22T01:15:46;20.70;99.90
24436;DHT22;12616;52.470;13.436;2023-06-22T01:18:17;20.70;99.90
24436;DHT22;12616;52.470;13.436;2023-06-22T01:20:45;20.70;99.90
24436;DHT22;12616;52.470;13.436;2023-06-22T01:23:20;20.70;99.90
24436;DHT22;12616;52.470;13.436;2023-06-22T01:26:02;20.50;1.00
24436;DHT22;12616;52.470;13.436;2023-06-22T01:28:43;20.70;1.00
24436;DHT22;12616;52.470;13.436;2023-06-22T01:31:12;20.70;99.90
24436;DHT22;12616;52.470;13.436;2023-06-22T01:33:43;20.70;1.00
24436;DHT22;12616;52.470;13.436;2023-06-22T01:36:10;20.70;1.00
24436;DHT22;12616;52.470;13.436;2023-06-22T01:38:38;20.80;99.90
24436;DHT22;12616;52.470;13.436;2023-06-22T01:41:05;20.60;1.00
24436;DHT22;12616;52.470;13.436;2023-06-22T01:43:33;20.60;99.90
24436;DHT22;12616;52.470;13.436;2023-06-22T01:46:02;20.50;99.90
24436;DHT22;12616;52.470;13.436;2023-06-22T01:48:30;20.60;1.00
24436;DHT22;12616;52.470;13.436;2023-06-22T01:50:57;20.50;99.90
24436;DHT22;12616;52.470;13.436;2023-06-22T01:53:25;20.40;99.90
24436;DHT22;12616;52.470;13.436;2023-06-22T01:55:52;20.40;1.00
24436;DHT22;12616;52.470;13.436;2023-06-22T01:58:20;20.40;1.00
24436;DHT22;12616;52.470;13.436;2023-06-22T02:00:50;20.70;99.90
24436;DHT22;12616;52.470;13.436;2023-06-22T02:03:22;20.60;99.90
24436;DHT22;12616;52.470;13.436;2023-06-22T02:05:54;20.60;99.90
24436;DHT22;12616;52.470;13.436;2023-06-22T02:08:25;20.70;91.90
24436;DHT22;12616;52.470;13.436;2023-06-22T02:10:54;20.70;39.30
24436;DHT22;12616;52.470;13.436;2023-06-22T02:13:23;20.60;99.90
24436;DHT22;12616;52.470;13.436;2023-06-22T02:15:50;20.60;99.90
24436;DHT22;12616;52.470;13.436;2023-06-22T02:18:19;20.50;99.90
24436;DHT22;12616;52.470;13.436;2023-06-22T02:20:46;20.60;1.00
24436;DHT22;12616;52.470;13.436;2023-06-22T02:23:13;20.70;1.00
24436;DHT22;12616;52.470;13.436;2023-06-22T02:25:43;20.50;44.50
24436;DHT22;12616;52.470;13.436;2023-06-22T02:28:10;20.10;1.00
24436;DHT22;12616;52.470;13.436;2023-06-22T02:30:37;20.40;1.00
24436;DHT22;12616;52.470;13.436;2023-06-22T02:33:04;20.40;99.90
24436;DHT22;12616;52.470;13.436;2023-06-22T02:35:32;20.40;99.90
24436;DHT22;12616;52.470;13.436;2023-06-22T02:38:02;20.60;47.90
24436;DHT22;12616;52.470;13.436;2023-06-22T02:40:29;20.40;1.00
24436;DHT22;12616;52.470;13.436;2023-06-22T02:42:57;20.40;1.00
24436;DHT22;12616;52.470;13.436;2023-06-22T02:45:28;20.50;1.00
24436;DHT22;12616;52.470;13.436;2023-06-22T02:47:55;20.70;44.60
24436;DHT22;12616;52.470;13.436;2023-06-22T02:50:22;20.20;99.90
24436;DHT22;12616;52.470;13.436;2023-06-22T02:52:50;20.40;1.00
24436;DHT22;12616;52.470;13.436;2023-06-22T02:55:17;20.50;1.00
24436;DHT22;12616;52.470;13.436;2023-06-22T02:57:44;20.50;1.00
24436;DHT22;12616;52.470;13.436;2023-06-22T03:00:14;20.70;99.90
24436;DHT22;12616;52.470;13.436;2023-06-22T03:02:43;20.50;1.00
24436;DHT22;12616;52.470;13.436;2023-06-22T03:05:11;20.50;1.00
24436;DHT22;12616;52.470;13.436;2023-06-22T03:07:39;20.40;1.00
24436;DHT22;12616;52.470;13.436;2023-06-22T03:10:09;20.40;3.00
24436;DHT22;12616;52.470;13.436;2023-06-22T03:12:37;20.30;99.90
24436;DHT22;12616;52.470;13.436;2023-06-22T03:15:05;20.40;11.20
24436;DHT22;12616;52.470;13.436;2023-06-22T03:17:33;20.40;99.90
24436;DHT22;12616;52.470;13.436;2023-06-22T03:20:00;20.40;99.90
24436;DHT22;12616;52.470;13.436;2023-06-22T03:22:32;20.40;38.00
24436;DHT22;12616;52.470;13.436;2023-06-22T03:24:59;20.30;89.80
24436;DHT22;12616;52.470;13.436;2023-06-22T03:27:27;20.30;99.90
24436;DHT22;12616;52.470;13.436;2023-06-22T03:29:54;20.20;99.90
24436;DHT22;12616;52.470;13.436;2023-06-22T03:32:21;20.20;99.90
24436;DHT22;12616;52.470;13.436;2023-06-22T03:34:48;20.20;99.90
24436;DHT22;12616;52.470;13.436;2023-06-22T03:37:15;19.90;99.90
24436;DHT22;12616;52.470;13.436;2023-06-22T03:39:42;20.20;1.00
24436;DHT22;12616;52.470;13.436;2023-06-22T03:42:09;20.20;1.00
24436;DHT22;12616;52.470;13.436;2023-06-22T03:44:37;20.20;1.00
24436;DHT22;12616;52.470;13.436;2023-06-22T03:47:04;20.30;1.00
24436;DHT22;12616;52.470;13.436;2023-06-22T03:52:01;20.20;1.00
24436;DHT22;12616;52.470;13.436;2023-06-22T03:54:28;20.10;1.00
24436;DHT22;12616;52.470;13.436;2023-06-22T03:56:57;20.20;1.00
24436;DHT22;12616;52.470;13.436;2023-06-22T03:59:25;20.20;99.90
24436;DHT22;12616;52.470;13.436;2023-06-22T04:01:53;20.20;1.00
24436;DHT22;12616;52.470;13.436;2023-06-22T04:04:20;20.20;1.00
24436;DHT22;12616;52.470;13.436;2023-06-22T04:06:47;20.20;1.00
24436;DHT22;12616;52.470;13.436;2023-06-22T04:09:14;20.20;1.00
24436;DHT22;12616;52.470;13.436;2023-06-22T04:11:40;20.20;99.90
24436;DHT22;12616;52.470;13.436;2023-06-22T04:14:07;20.10;1.00
24436;DHT22;12616;52.470;13.436;2023-06-22T04:16:34;20.20;99.90
24436;DHT22;12616;52.470;13.436;2023-06-22T04:19:02;20.20;99.90
24436;DHT22;12616;52.470;13.436;2023-06-22T04:21:29;20.10;1.00
24436;DHT22;12616;52.470;13.436;2023-06-22T04:23:56;20.10;1.00
24436;DHT22;12616;52.470;13.436;2023-06-22T04:26:23;19.80;99.90
24436;DHT22;12616;52.470;13.436;2023-06-22T04:28:50;20.20;1.00
24436;DHT22;12616;52.470;13.436;2023-06-22T04:31:21;20.10;1.00
24436;DHT22;12616;52.470;13.436;2023-06-22T04:36:18;20.20;1.00
24436;DHT22;12616;52.470;13.436;2023-06-22T04:45:50;19.80;99.90
24436;DHT22;12616;52.470;13.436;2023-06-22T05:18:19;20.70;1.00
24436;DHT22;12616;52.470;13.436;2023-06-22T05:42:05;21.20;99.90
24436;DHT22;12616;52.470;13.436;2023-06-22T05:44:37;21.40;1.00
24436;DHT22;12616;52.470;13.436;2023-06-22T05:49:42;18.50;99.90
24436;DHT22;12616;52.470;13.436;2023-06-22T05:57:13;21.50;99.90
24436;DHT22;12616;52.470;13.436;2023-06-22T06:12:56;21.60;99.90
24436;DHT22;12616;52.470;13.436;2023-06-22T06:15:37;22.40;99.90
24436;DHT22;12616;52.470;13.436;2023-06-22T06:18:29;21.70;99.90
24436;DHT22;12616;52.470;13.436;2023-06-22T06:21:15;21.60;99.90
24436;DHT22;12616;52.470;13.436;2023-06-22T06:24:04;21.60;99.90
24436;DHT22;12616;52.470;13.436;2023-06-22T06:27:34;21.80;99.90
24436;DHT22;12616;52.470;13.436;2023-06-22T06:34:10;22.10;99.90
24436;DHT22;12616;52.470;13.436;2023-06-22T06:37:26;22.30;99.90
24436;DHT22;12616;52.470;13.436;2023-06-22T06:44:23;22.30;99.90
24436;DHT22;12616;52.470;13.436;2023-06-22T06:55:36;22.80;1.00
24436;DHT22;12616;52.470;13.436;2023-06-22T07:02:05;22.90;1.00
24436;DHT22;12616;52.470;13.436;2023-06-22T07:05:11;23.10;1.00
24436;DHT22;12616;52.470;13.436;2023-06-22T07:07:59;23.10;1.00
24436;DHT22;12616;52.470;13.436;2023-06-22T07:10:49;23.00;1.00
24436;DHT22;12616;52.470;13.436;2023-06-22T07:16:14;23.00;1.00
24436;DHT22;12616;52.470;13.436;2023-06-22T07:18:59;23.20;1.00
24436;DHT22;12616;52.470;13.436;2023-06-22T07:21:50;23.40;99.90
24436;DHT22;12616;52.470;13.436;2023-06-22T07:27:17;23.70;1.00
24436;DHT22;12616;52.470;13.436;2023-06-22T07:30:26;23.60;1.00
24436;DHT22;12616;52.470;13.436;2023-06-22T07:33:16;23.50;1.00
24436;DHT22;12616;52.470;13.436;2023-06-22T07:39:43;23.70;1.00
24436;DHT22;12616;52.470;13.436;2023-06-22T07:42:25;23.70;1.00
24436;DHT22;12616;52.470;13.436;2023-06-22T07:47:20;23.50;99.90
24436;DHT22;12616;52.470;13.436;2023-06-22T07:52:20;23.90;1.00
24436;DHT22;12616;52.470;13.436;2023-06-22T08:15:30;24.20;1.00
24436;DHT22;12616;52.470;13.436;2023-06-22T08:18:20;24.20;1.00
24436;DHT22;12616;52.470;13.436;2023-06-22T08:26:18;24.40;1.00
24436;DHT22;12616;52.470;13.436;2023-06-22T09:13:55;25.20;1.00
24436;DHT22;12616;52.470;13.436;2023-06-22T09:45:46;25.80;1.00
24436;DHT22;12616;52.470;13.436;2023-06-22T09:51:11;25.90;1.00
24436;DHT22;12616;52.470;13.436;2023-06-22T10:10:09;26.00;1.00
24436;DHT22;12616;52.470;13.436;2023-06-22T10:27:34;26.30;1.00
24436;DHT22;12616;52.470;13.436;2023-06-22T10:30:47;26.50;1.00
24436;DHT22;12616;52.470;13.436;2023-06-22T10:39:05;26.70;1.00
24436;DHT22;12616;52.470;13.436;2023-06-22T11:02:40;26.80;99.90
24436;DHT22;12616;52.470;13.436;2023-06-22T11:29:26;26.90;1.00
24436;DHT22;12616;52.470;13.436;2023-06-22T11:32:50;26.80;1.00
24436;DHT22;12616;52.470;13.436;2023-06-22T11:38:23;27.20;99.90
24436;DHT22;12616;52.470;13.436;2023-06-22T11:44:59;27.10;1.00
24436;DHT22;12616;52.470;13.436;2023-06-22T11:49:15;27.40;1.00
24436;DHT22;12616;52.470;13.436;2023-06-22T11:57:23;27.30;99.90
24436;DHT22;12616;52.470;13.436;2023-06-22T12:00:07;27.80;1.00
24436;DHT22;12616;52.470;13.436;2023-06-22T12:02:46;27.50;1.00
24436;DHT22;12616;52.470;13.436;2023-06-22T12:10:38;27.70;1.00
24436;DHT22;12616;52.470;13.436;2023-06-22T12:16:22;27.50;99.90
24436;DHT22;12616;52.470;13.436;2023-06-22T12:19:04;27.60;1.00
24436;DHT22;12616;52.470;13.436;2023-06-22T12:21:49;27.90;1.00
24436;DHT22;12616;52.470;13.436;2023-06-22T12:24:34;27.60;1.00
24436;DHT22;12616;52.470;13.436;2023-06-22T12:27:24;27.60;99.90
24436;DHT22;12616;52.470;13.436;2023-06-22T12:30:10;27.60;99.90
24436;DHT22;12616;52.470;13.436;2023-06-22T12:32:52;27.60;1.00
24436;DHT22;12616;52.470;13.436;2023-06-22T12:35:52;27.80;1.00
24436;DHT22;12616;52.470;13.436;2023-06-22T12:38:41;27.80;99.90
24436;DHT22;12616;52.470;13.436;2023-06-22T12:44:01;27.90;1.00
24436;DHT22;12616;52.470;13.436;2023-06-22T12:50:13;27.90;99.90
24436;DHT22;12616;52.470;13.436;2023-06-22T12:53:09;27.80;99.90
24436;DHT22;12616;52.470;13.436;2023-06-22T12:58:58;27.70;99.90
24436;DHT22;12616;52.470;13.436;2023-06-22T13:05:09;27.90;1.00
24436;DHT22;12616;52.470;13.436;2023-06-22T13:07:56;27.60;1.00
24436;DHT22;12616;52.470;13.436;2023-06-22T13:11:19;28.10;99.90
24436;DHT22;12616;52.470;13.436;2023-06-22T13:14:22;28.10;99.90
24436;DHT22;12616;52.470;13.436;2023-06-22T13:17:43;28.40;1.00
24436;DHT22;12616;52.470;13.436;2023-06-22T13:20:38;27.90;99.90
24436;DHT22;12616;52.470;13.436;2023-06-22T13:26:31;27.80;99.90
24436;DHT22;12616;52.470;13.436;2023-06-22T13:29:31;27.90;99.90
24436;DHT22;12616;52.470;13.436;2023-06-22T13:39:40;28.10;99.90
24436;DHT22;12616;52.470;13.436;2023-06-22T13:45:55;28.10;99.90
24436;DHT22;12616;52.470;13.436;2023-06-22T13:48:51;28.20;99.90
24436;DHT22;12616;52.470;13.436;2023-06-22T13:55:26;28.40;1.00
24436;DHT22;12616;52.470;13.436;2023-06-22T14:01:29;28.20;99.90
24436;DHT22;12616;52.470;13.436;2023-06-22T14:04:11;28.30;99.90
24436;DHT22;12616;52.470;13.436;2023-06-22T14:07:14;28.20;99.90
24436;DHT22;12616;52.470;13.436;2023-06-22T14:10:08;28.20;99.90
24436;DHT22;12616;52.470;13.436;2023-06-22T14:13:11;27.80;1.00
24436;DHT22;12616;52.470;13.436;2023-06-22T14:16:12;28.10;99.90
24436;DHT22;12616;52.470;13.436;2023-06-22T14:18:57;27.70;1.00
24436;DHT22;12616;52.470;13.436;2023-06-22T14:21:44;28.10;99.90
24436;DHT22;12616;52.470;13.436;2023-06-22T14:24:37;28.10;99.90
24436;DHT22;12616;52.470;13.436;2023-06-22T14:27:27;27.80;1.00
24436;DHT22;12616;52.470;13.436;2023-06-22T14:30:22;28.30;99.90
24436;DHT22;12616;52.470;13.436;2023-06-22T14:33:09;28.80;1.00
24436;DHT22;12616;52.470;13.436;2023-06-22T14:36:49;28.30;99.90
24436;DHT22;12616;52.470;13.436;2023-06-22T14:39:33;28.40;99.90
24436;DHT22;12616;52.470;13.436;2023-06-22T14:45:43;28.30;99.90
24436;DHT22;12616;52.470;13.436;2023-06-22T14:48:59;28.30;1.00
24436;DHT22;12616;52.470;13.436;2023-06-22T14:52:12;28.10;99.90
24436;DHT22;12616;52.470;13.436;2023-06-22T14:55:29;28.10;99.90
24436;DHT22;12616;52.470;13.436;2023-06-22T14:58:42;28.00;99.90
24436;DHT22;12616;52.470;13.436;2023-06-22T15:04:59;28.30;1.00
24436;DHT22;12616;52.470;13.436;2023-06-22T15:07:49;28.10;99.90
24436;DHT22;12616;52.470;13.436;2023-06-22T15:11:05;28.30;1.00
24436;DHT22;12616;52.470;13.436;2023-06-22T15:13:46;28.20;99.90
24436;DHT22;12616;52.470;13.436;2023-06-22T15:16:21;28.30;99.90
24436;DHT22;12616;52.470;13.436;2023-06-22T15:27:26;28.30;1.00
24436;DHT22;12616;52.470;13.436;2023-06-22T15:30:14;28.40;99.90
24436;DHT22;12616;52.470;13.436;2023-06-22T15:33:35;27.70;99.90
24436;DHT22;12616;52.470;13.436;2023-06-22T15:42:15;27.80;99.90
24436;DHT22;12616;52.470;13.436;2023-06-22T15:59:28;28.00;99.90
24436;DHT22;12616;52.470;13.436;2023-06-22T16:16:51;28.00;99.90
24436;DHT22;12616;52.470;13.436;2023-06-22T16:31:47;27.40;99.90
24436;DHT22;12616;52.470;13.436;2023-06-22T16:46:33;27.40;99.90
24436;DHT22;12616;52.470;13.436;2023-06-22T16:49:18;27.30;99.90
24436;DHT22;12616;52.470;13.436;2023-06-22T16:52:00;27.20;99.90
24436;DHT22;12616;52.470;13.436;2023-06-22T16:54:37;27.50;1.00
24436;DHT22;12616;52.470;13.436;2023-06-22T16:57:09;26.80;1.00
24436;DHT22;12616;52.470;13.436;2023-06-22T17:02:17;27.10;1.00
24436;DHT22;12616;52.470;13.436;2023-06-22T17:04:59;27.00;99.90
24436;DHT22;12616;52.470;13.436;2023-06-22T17:07:35;27.00;99.90
24436;DHT22;12616;52.470;13.436;2023-06-22T17:10:07;27.00;99.90
24436;DHT22;12616;52.470;13.436;2023-06-22T17:12:57;27.00;99.90
24436;DHT22;12616;52.470;13.436;2023-06-22T17:15:29;26.90;99.90
24436;DHT22;12616;52.470;13.436;2023-06-22T17:18:05;27.00;99.90
24436;DHT22;12616;52.470;13.436;2023-06-22T17:20:58;27.00;99.90
24436;DHT22;12616;52.470;13.436;2023-06-22T17:23:27;27.00;99.90
24436;DHT22;12616;52.470;13.436;2023-06-22T17:25:59;26.90;99.90
24436;DHT22;12616;52.470;13.436;2023-06-22T17:39:51;26.70;99.90
24436;DHT22;12616;52.470;13.436;2023-06-22T17:45:44;26.70;99.90
24436;DHT22;12616;52.470;13.436;2023-06-22T17:48:54;26.60;99.90
24436;DHT22;12616;52.470;13.436;2023-06-22T17:52:01;26.70;1.00
24436;DHT22;12616;52.470;13.436;2023-06-22T17:58:50;26.60;1.00
24436;DHT22;12616;52.470;13.436;2023-06-22T18:02:13;26.40;1.00
24436;DHT22;12616;52.470;13.436;2023-06-22T18:05:33;26.40;99.90
24436;DHT22;12616;52.470;13.436;2023-06-22T18:24:29;26.10;99.90
24436;DHT22;12616;52.470;13.436;2023-06-22T18:25:44;26.10;99.90
24436;DHT22;12616;52.470;13.436;2023-06-22T18:28:21;26.00;99.90
24436;DHT22;12616;52.470;13.436;2023-06-22T18:50:41;25.70;1.00
24436;DHT22;12616;52.470;13.436;2023-06-22T18:53:31;25.80;99.90
24436;DHT22;12616;52.470;13.436;2023-06-22T18:56:27;25.70;99.90
24436;DHT22;12616;52.470;13.436;2023-06-22T18:59:12;25.60;99.90
24436;DHT22;12616;52.470;13.436;2023-06-22T19:16:56;25.40;99.90
24436;DHT22;12616;52.470;13.436;2023-06-22T19:19:37;25.40;99.90
24436;DHT22;12616;52.470;13.436;2023-06-22T19:22:43;25.30;99.90
24436;DHT22;12616;52.470;13.436;2023-06-22T19:25:32;25.30;99.90
24436;DHT22;12616;52.470;13.436;2023-06-22T19:28:13;25.30;99.90
24436;DHT22;12616;52.470;13.436;2023-06-22T19:33:44;25.30;99.90
24436;DHT22;12616;52.470;13.436;2023-06-22T19:36:26;25.30;99.90
24436;DHT22;12616;52.470;13.436;2023-06-22T19:39:12;25.30;99.90
24436;DHT22;12616;52.470;13.436;2023-06-22T19:41:46;25.30;99.90
24436;DHT22;12616;52.470;13.436;2023-06-22T19:44:22;25.40;1.00
24436;DHT22;12616;52.470;13.436;2023-06-22T19:47:00;25.20;99.90
24436;DHT22;12616;52.470;13.436;2023-06-22T19:49:43;25.20;99.90
24436;DHT22;12616;52.470;13.436;2023-06-22T19:52:17;25.20;99.90
24436;DHT22;12616;52.470;13.436;2023-06-22T19:57:32;25.20;99.90
24436;DHT22;12616;52.470;13.436;2023-06-22T20:00:27;25.10;1.00
24436;DHT22;12616;52.470;13.436;2023-06-22T20:03:21;25.00;99.90
24436;DHT22;12616;52.470;13.436;2023-06-22T20:06:15;25.00;99.90
24436;DHT22;12616;52.470;13.436;2023-06-22T20:08:49;25.00;99.90
24436;DHT22;12616;52.470;13.436;2023-06-22T20:11:24;24.90;99.90
24436;DHT22;12616;52.470;13.436;2023-06-22T20:13:55;24.90;99.90
24436;DHT22;12616;52.470;13.436;2023-06-22T20:19:10;24.80;99.90
24436;DHT22;12616;52.470;13.436;2023-06-22T20:21:45;24.50;1.00
24436;DHT22;12616;52.470;13.436;2023-06-22T20:24:25;24.70;99.90
24436;DHT22;12616;52.470;13.436;2023-06-22T20:27:09;24.60;99.90
24436;DHT22;12616;52.470;13.436;2023-06-22T20:32:08;24.30;1.00
24436;DHT22;12616;52.470;13.436;2023-06-22T20:34:42;24.30;1.00
24436;DHT22;12616;52.470;13.436;2023-06-22T20:37:15;23.90;17.20
24436;DHT22;12616;52.470;13.436;2023-06-22T20:40:05;23.10;1.00
24436;DHT22;12616;52.470;13.436;2023-06-22T20:42:44;22.00;99.90
24436;DHT22;12616;52.470;13.436;2023-06-22T20:45:15;20.90;1.00
24436;DHT22;12616;52.470;13.436;2023-06-22T20:53:53;19.80;99.90
24436;DHT22;12616;52.470;13.436;2023-06-22T20:59:26;19.40;99.90
24436;DHT22;12616;52.470;13.436;2023-06-22T21:01:59;19.40;99.90
24436;DHT22;12616;52.470;13.436;2023-06-22T21:08:01;19.20;99.90
24436;DHT22;12616;52.470;13.436;2023-06-22T21:21:26;19.60;99.90
24436;DHT22;12616;52.470;13.436;2023-06-22T21:24:13;19.50;99.90
24436;DHT22;12616;52.470;13.436;2023-06-22T21:27:19;19.40;99.90
24436;DHT22;12616;52.470;13.436;2023-06-22T21:30:01;19.50;99.90
24436;DHT22;12616;52.470;13.436;2023-06-22T21:44:55;19.60;99.90
24436;DHT22;12616;52.470;13.436;2023-06-22T21:47:55;19.70;99.90
24436;DHT22;12616;52.470;13.436;2023-06-22T21:51:25;19.60;99.90
24436;DHT22;12616;52.470;13.436;2023-06-22T21:54:47;19.40;99.90
24436;DHT22;12616;52.470;13.436;2023-06-22T21:57:33;19.50;99.90
24436;DHT22;12616;52.470;13.436;2023-06-22T22:30:05;18.80;99.90
24436;DHT22;12616;52.470;13.436;2023-06-22T22:37:00;19.00;99.90
24436;DHT22;12616;52.470;13.436;2023-06-22T22:47:06;18.90;99.90
24436;DHT22;12616;52.470;13.436;2023-06-22T22:56:55;18.70;99.90
24436;DHT22;12616;52.470;13.436;2023-06-22T23:04:18;18.60;99.90
24436;DHT22;12616;52.470;13.436;2023-06-22T23:09:12;18.50;99.90
24436;DHT22;12616;52.470;13.436;2023-06-22T23:11:38;18.60;99.90
24436;DHT22;12616;52.470;13.436;2023-06-22T23:14:05;18.60;99.90
24436;DHT22;12616;52.470;13.436;2023-06-22T23:21:29;18.30;99.90
24436;DHT22;12616;52.470;13.436;2023-06-22T23:38:45;18.00;99.90
24436;DHT22;12616;52.470;13.436;2023-06-22T23:56:00;18.00;99.90
